Time;durP1;ratioP1;P1;durP2;ratioP2;P2;SDS_P1;SDS_P2;PMS_P1;PMS_P2;Temp;Humidity;BMP_temperature;BMP_pressure;BME280_temperature;BME280_humidity;BME280_pressure;Samples;Min_cycle;Max_cycle;Signal;HPM_P1;HPM_P2
2022/05/02 00:00:20;;;;;;;8.77;7.93;;;10.60;99.90;;;;;;5073868;28;20580;-57
2022/05/02 00:02:47;;;;;;;8.60;7.80;;;10.60;99.90;;;;;;5073640;28;20255;-57
2022/05/02 00:05:13;;;;;;;9.00;7.80;;;10.80;99.90;;;;;;5073238;28;20208;-57
2022/05/02 00:07:42;;;;;;;8.77;7.47;;;10.90;99.90;;;;;;5073685;28;20209;-57
2022/05/02 00:10:09;;;;;;;8.70;7.77;;;11.00;99.90;;;;;;5073565;28;20667;-57
2022/05/02 00:12:36;;;;;;;9.10;8.07;;;11.10;99.90;;;;;;5073692;28;20213;-57
2022/05/02 00:15:03;;;;;;;9.03;7.67;;;11.20;99.90;;;;;;5073213;28;20208;-56
2022/05/02 00:20:14;;;;;;;8.00;7.20;;;11.40;99.90;;;;;;5073098;28;20200;-57
2022/05/02 00:22:42;;;;;;;7.83;7.07;;;11.50;99.90;;;;;;5073361;28;20258;-56
2022/05/02 00:25:09;;;;;;;9.30;7.20;;;11.60;99.90;;;;;;5073227;28;20212;-56
2022/05/02 00:27:38;;;;;;;8.27;7.47;;;11.60;99.90;;;;;;5073791;28;20209;-56
2022/05/02 00:30:06;;;;;;;8.40;7.50;;;11.70;99.90;;;;;;5073463;28;20676;-56
2022/05/02 00:32:33;;;;;;;8.10;7.30;;;11.80;99.90;;;;;;5072156;28;20212;-56
2022/05/02 00:35:00;;;;;;;7.87;6.93;;;11.80;99.90;;;;;;5072421;28;20205;-56
2022/05/02 00:37:26;;;;;;;7.30;6.60;;;11.80;99.90;;;;;;5072940;28;20225;-57
2022/05/02 00:39:54;;;;;;;8.27;7.47;;;11.90;99.90;;;;;;5073214;28;20212;-56
2022/05/02 00:42:21;;;;;;;7.30;6.60;;;11.80;99.90;;;;;;5073262;28;20205;-57
2022/05/02 00:44:48;;;;;;;8.30;7.50;;;11.80;99.90;;;;;;5072710;28;20204;-56
2022/05/02 00:47:15;;;;;;;9.40;7.50;;;11.80;99.90;;;;;;5073202;28;20208;-56
2022/05/02 00:49:42;;;;;;;8.80;6.80;;;11.70;99.90;;;;;;5073140;28;20229;-55
2022/05/02 00:52:10;;;;;;;11.07;7.10;;;11.70;99.90;;;;;;5072947;28;20205;-58
2022/05/02 00:54:37;;;;;;;9.03;7.50;;;11.50;99.90;;;;;;5072852;28;20296;-56
2022/05/02 00:57:07;;;;;;;8.10;7.40;;;11.30;99.90;;;;;;5072905;28;20634;-55
2022/05/02 00:59:36;;;;;;;9.70;8.00;;;11.40;99.90;;;;;;5072626;28;20236;-55
2022/05/02 01:02:02;;;;;;;11.07;9.43;;;11.40;99.90;;;;;;5072845;28;20259;-55
2022/05/02 01:04:29;;;;;;;9.17;8.30;;;11.50;99.90;;;;;;5072704;28;20211;-55
2022/05/02 01:07:11;;;;;;;8.73;7.93;;;11.40;99.90;;;;;;5072896;28;20209;-55
2022/05/02 01:09:41;;;;;;;9.00;8.17;;;11.50;99.90;;;;;;5072675;28;20221;-56
2022/05/02 01:12:11;;;;;;;9.13;8.23;;;11.60;99.90;;;;;;5072408;28;20212;-57
2022/05/02 01:14:38;;;;;;;9.20;8.30;;;11.70;99.90;;;;;;5072596;28;20201;-56
2022/05/02 01:17:06;;;;;;;10.50;9.40;;;11.80;99.90;;;;;;5072617;28;20224;-56
2022/05/02 01:19:34;;;;;;;10.20;8.80;;;11.90;99.90;;;;;;5072598;28;20302;-55
2022/05/02 01:22:03;;;;;;;10.97;9.20;;;12.00;99.90;;;;;;5072697;28;20209;-56
2022/05/02 01:24:37;;;;;;;10.70;9.63;;;12.00;99.90;;;;;;5072159;28;20227;-56
2022/05/02 01:27:05;;;;;;;11.43;9.47;;;12.10;99.90;;;;;;5072841;28;20200;-56
2022/05/02 01:29:33;;;;;;;10.07;9.00;;;12.10;99.90;;;;;;5072650;28;20231;-56
2022/05/02 01:32:00;;;;;;;9.00;8.10;;;12.00;99.90;;;;;;5072653;28;20699;-56
2022/05/02 01:34:27;;;;;;;9.70;8.20;;;12.00;99.90;;;;;;5071837;28;20231;-56
2022/05/02 01:36:55;;;;;;;11.13;10.03;;;12.00;99.90;;;;;;5072080;28;20232;-57
2022/05/02 01:39:23;;;;;;;12.93;10.43;;;12.00;99.90;;;;;;5072066;28;20225;-56
2022/05/02 01:41:49;;;;;;;14.53;12.70;;;11.90;99.90;;;;;;5072723;28;20683;-56
2022/05/02 01:44:16;;;;;;;9.57;7.73;;;11.90;99.90;;;;;;5076192;28;20207;-56
2022/05/02 01:46:43;;;;;;;9.70;8.17;;;11.90;99.90;;;;;;5076644;28;20676;-56
2022/05/02 01:49:10;;;;;;;8.30;7.50;;;11.80;99.90;;;;;;5076034;28;20258;-57
2022/05/02 01:51:37;;;;;;;8.23;7.43;;;11.70;99.90;;;;;;5076803;28;20234;-56
2022/05/02 01:54:04;;;;;;;8.13;7.33;;;11.60;99.90;;;;;;5075952;28;20204;-56
2022/05/02 01:56:32;;;;;;;8.47;7.67;;;11.60;99.90;;;;;;5075581;28;20216;-56
2022/05/02 01:58:58;;;;;;;9.67;7.30;;;11.50;99.90;;;;;;5107038;22;20232;-59
2022/05/02 02:01:25;;;;;;;8.63;7.83;;;11.60;99.90;;;;;;5083945;28;20246;-57
2022/05/02 02:03:52;;;;;;;9.30;8.00;;;11.60;99.90;;;;;;5075357;28;20558;-57
2022/05/02 02:06:17;;;;;;;7.87;7.07;;;11.60;99.90;;;;;;5075043;28;20209;-58
2022/05/02 02:08:44;;;;;;;8.97;7.60;;;11.70;99.90;;;;;;5075487;28;20645;-57
2022/05/02 02:11:12;;;;;;;9.03;8.13;;;11.80;99.90;;;;;;5075328;28;20670;-58
2022/05/02 02:13:40;;;;;;;9.47;8.20;;;11.80;99.90;;;;;;5075319;28;20209;-58
2022/05/02 02:16:09;;;;;;;11.30;8.70;;;11.90;99.90;;;;;;5074970;28;20263;-57
2022/05/02 02:18:38;;;;;;;9.73;8.30;;;11.90;99.90;;;;;;5074930;28;20235;-58
2022/05/02 02:21:05;;;;;;;9.10;8.13;;;12.00;99.90;;;;;;5075390;28;20292;-57
2022/05/02 02:23:32;;;;;;;8.63;7.83;;;12.00;99.90;;;;;;5075115;28;20200;-58
2022/05/02 02:25:59;;;;;;;11.50;9.23;;;12.10;99.90;;;;;;5074805;28;20213;-57
2022/05/02 02:28:25;;;;;;;9.93;8.90;;;12.10;99.90;;;;;;5074726;28;20631;-57
2022/05/02 02:30:53;;;;;;;9.60;8.67;;;12.20;99.90;;;;;;5074958;28;20254;-58
2022/05/02 02:33:21;;;;;;;12.27;8.57;;;12.30;99.90;;;;;;5075029;28;20201;-57
2022/05/02 02:35:48;;;;;;;9.97;8.53;;;12.30;99.90;;;;;;5074743;28;20209;-57
2022/05/02 02:38:14;;;;;;;9.43;8.00;;;12.30;99.90;;;;;;5074736;28;20235;-57
2022/05/02 02:40:42;;;;;;;9.10;8.20;;;12.30;99.90;;;;;;5074809;28;20204;-57
2022/05/02 02:43:09;;;;;;;9.53;8.30;;;12.30;99.90;;;;;;5074650;28;20209;-58
2022/05/02 02:45:36;;;;;;;9.33;8.43;;;12.20;99.90;;;;;;5074418;28;20208;-58
2022/05/02 02:48:04;;;;;;;8.47;7.43;;;12.30;99.90;;;;;;5074699;28;20292;-58
2022/05/02 02:50:31;;;;;;;8.67;7.87;;;12.20;99.90;;;;;;5074561;28;20619;-58
2022/05/02 02:52:58;;;;;;;7.87;7.17;;;12.20;99.90;;;;;;5074546;28;20209;-58
2022/05/02 02:55:25;;;;;;;9.40;7.83;;;12.20;99.90;;;;;;5073365;28;20645;-58
2022/05/02 02:57:52;;;;;;;8.20;7.40;;;12.20;99.90;;;;;;5074395;28;20279;-58
2022/05/02 03:00:19;;;;;;;8.63;7.47;;;12.20;99.90;;;;;;5074224;28;20200;-57
2022/05/02 03:02:46;;;;;;;8.77;7.97;;;12.20;99.90;;;;;;5074470;28;20212;-57
2022/05/02 03:07:59;;;;;;;9.07;7.80;;;12.30;99.90;;;;;;5074190;28;20278;-57
2022/05/02 03:10:26;;;;;;;11.07;10.00;;;12.30;99.90;;;;;;5074075;28;20201;-57
2022/05/02 03:12:54;;;;;;;11.07;9.97;;;12.30;99.90;;;;;;5074227;28;20213;-57
2022/05/02 03:15:21;;;;;;;10.60;9.57;;;12.30;99.90;;;;;;5074054;28;20208;-57
2022/05/02 03:17:47;;;;;;;211.30;122.73;;;12.30;99.90;;;;;;5074315;28;20224;-57
2022/05/02 03:20:15;;;;;;;81.13;49.10;;;12.40;99.90;;;;;;5073907;28;20233;-57
2022/05/02 03:22:42;;;;;;;11.40;10.20;;;12.40;99.90;;;;;;5074131;28;20308;-57
2022/05/02 03:25:09;;;;;;;9.07;7.73;;;12.30;99.90;;;;;;5073508;28;20668;-57
2022/05/02 03:27:37;;;;;;;8.57;7.73;;;12.30;99.90;;;;;;5073918;28;20205;-58
2022/05/02 03:30:05;;;;;;;9.73;8.77;;;12.20;99.90;;;;;;5073896;28;20229;-57
2022/05/02 03:32:31;;;;;;;10.60;9.50;;;12.30;99.90;;;;;;5074167;28;20205;-57
2022/05/02 03:34:58;;;;;;;10.47;9.37;;;11.90;99.90;;;;;;5073842;28;20208;-57
2022/05/02 03:37:27;;;;;;;11.10;10.00;;;11.70;99.90;;;;;;5073549;28;20217;-57
2022/05/02 03:39:53;;;;;;;10.60;9.30;;;11.50;99.90;;;;;;5073764;28;20228;-57
2022/05/02 03:42:20;;;;;;;10.50;9.50;;;11.40;99.90;;;;;;5073649;28;20205;-57
2022/05/02 03:44:47;;;;;;;10.37;9.37;;;11.30;99.90;;;;;;5073377;28;20209;-58
2022/05/02 03:47:13;;;;;;;10.60;9.60;;;11.20;99.90;;;;;;5073627;28;20263;-58
2022/05/02 03:49:40;;;;;;;10.43;9.33;;;11.00;99.90;;;;;;5073387;28;20232;-58
2022/05/02 03:52:07;;;;;;;10.00;8.47;;;10.90;99.90;;;;;;5073495;28;20212;-57
2022/05/02 03:54:36;;;;;;;9.60;8.60;;;10.90;99.90;;;;;;5073118;28;20705;-57
2022/05/02 03:57:02;;;;;;;9.10;8.30;;;10.90;99.90;;;;;;5073663;28;20205;-57
2022/05/02 03:59:30;;;;;;;10.43;8.10;;;10.80;99.90;;;;;;5073177;28;20237;-58
2022/05/02 04:01:57;;;;;;;9.90;8.90;;;10.70;99.90;;;;;;5073380;28;20619;-57
2022/05/02 04:04:23;;;;;;;9.30;8.40;;;10.70;99.90;;;;;;5073103;28;20671;-58
2022/05/02 04:06:50;;;;;;;9.57;8.67;;;10.60;99.90;;;;;;5072524;28;20258;-57
2022/05/02 04:09:17;;;;;;;10.63;9.63;;;10.60;99.90;;;;;;5073181;28;20228;-59
2022/05/02 04:11:45;;;;;;;10.07;9.17;;;10.60;99.90;;;;;;5072983;28;20557;-58
2022/05/02 04:14:12;;;;;;;10.87;9.23;;;10.50;99.90;;;;;;5073353;28;20205;-59
2022/05/02 04:16:39;;;;;;;10.90;9.77;;;10.40;99.90;;;;;;5072808;28;20205;-59
2022/05/02 04:19:07;;;;;;;10.23;9.13;;;10.40;99.90;;;;;;5073368;28;20229;-59
2022/05/02 04:21:33;;;;;;;10.43;8.87;;;10.40;99.90;;;;;;5072803;28;20266;-59
2022/05/02 04:24:00;;;;;;;10.23;9.13;;;10.40;99.90;;;;;;5073123;28;20262;-59
2022/05/02 04:26:27;;;;;;;9.87;8.97;;;10.40;99.90;;;;;;5072338;28;20205;-59
2022/05/02 04:28:55;;;;;;;11.00;9.13;;;10.40;99.90;;;;;;5072609;28;20224;-58
2022/05/02 04:31:22;;;;;;;9.73;8.73;;;10.40;99.90;;;;;;5072602;28;20664;-59
2022/05/02 04:33:48;;;;;;;10.50;8.63;;;10.40;99.90;;;;;;5072884;28;20212;-57
2022/05/02 04:36:15;;;;;;;10.13;8.70;;;10.50;99.90;;;;;;5072121;28;20209;-58
2022/05/02 04:38:42;;;;;;;10.30;9.33;;;10.50;99.90;;;;;;5072459;28;20805;-57
2022/05/02 04:41:11;;;;;;;10.33;9.10;;;10.50;99.90;;;;;;5072543;28;20583;-57
2022/05/02 04:43:38;;;;;;;10.53;9.43;;;10.60;99.90;;;;;;5072429;28;20292;-57
2022/05/02 04:46:06;;;;;;;10.73;9.63;;;10.60;99.90;;;;;;5072220;28;20216;-58
2022/05/02 04:48:33;;;;;;;11.43;10.23;;;10.70;99.90;;;;;;5072136;28;20290;-58
2022/05/02 04:51:00;;;;;;;10.87;9.73;;;10.80;99.90;;;;;;5072545;28;20205;-58
2022/05/02 04:53:26;;;;;;;10.27;9.30;;;10.80;99.90;;;;;;5072299;28;20208;-59
2022/05/02 04:55:53;;;;;;;11.57;9.67;;;10.90;99.90;;;;;;5071998;28;20209;-58
2022/05/02 04:58:19;;;;;;;10.37;9.33;;;10.90;99.90;;;;;;5071997;28;20286;-58
2022/05/02 05:00:47;;;;;;;10.60;9.17;;;10.90;99.90;;;;;;5072181;28;20205;-58
2022/05/02 05:03:15;;;;;;;10.03;9.13;;;10.90;99.90;;;;;;5072028;28;20285;-58
2022/05/02 05:05:42;;;;;;;10.33;9.23;;;11.00;99.90;;;;;;5071931;28;20205;-58
2022/05/02 05:08:08;;;;;;;9.43;8.53;;;11.10;99.90;;;;;;5071988;28;20208;-58
2022/05/02 05:10:46;;;;;;;10.67;9.57;;;11.20;99.90;;;;;;5071986;28;20275;-59
2022/05/02 05:13:18;;;;;;;10.60;9.60;;;11.40;99.90;;;;;;5072096;28;20212;-59
2022/05/02 05:18:58;;;;;;;10.70;9.03;;;11.70;99.90;;;;;;5071378;28;20235;-59
2022/05/02 05:21:33;;;;;;;9.73;8.73;;;11.90;99.90;;;;;;5072070;28;20590;-60
2022/05/02 05:24:25;;;;;;;10.63;9.57;;;12.00;99.90;;;;;;5071772;28;20295;-59
2022/05/02 05:27:02;;;;;;;13.90;9.90;;;12.10;99.90;;;;;;5071910;28;20201;-59
2022/05/02 05:29:36;;;;;;;11.27;8.93;;;12.20;99.90;;;;;;5071775;28;20249;-58
2022/05/02 05:32:16;;;;;;;11.87;8.97;;;12.50;99.90;;;;;;5071703;28;20291;-58
2022/05/02 05:34:52;;;;;;;9.93;8.93;;;12.90;99.90;;;;;;5071816;28;20731;-59
2022/05/02 05:37:46;;;;;;;9.23;8.40;;;13.30;99.90;;;;;;5071812;28;20223;-59
2022/05/02 05:40:20;;;;;;;10.17;8.90;;;13.70;99.90;;;;;;5071638;28;20712;-59
2022/05/02 05:42:58;;;;;;;10.53;8.43;;;14.10;99.90;;;;;;5071451;28;20636;-58
2022/05/02 05:45:38;;;;;;;8.20;7.40;;;14.50;99.90;;;;;;5071653;28;20200;-59
2022/05/02 05:48:13;;;;;;;8.70;7.80;;;14.80;99.90;;;;;;5071547;28;20253;-58
2022/05/02 05:50:43;;;;;;;8.37;7.57;;;15.10;99.90;;;;;;5071436;28;20298;-58
2022/05/02 05:53:21;;;;;;;10.63;7.50;;;15.30;99.90;;;;;;5071322;28;20212;-59
2022/05/02 05:56:16;;;;;;;9.30;8.40;;;15.40;99.90;;;;;;5071436;28;20204;-58
2022/05/02 05:59:04;;;;;;;9.20;7.73;;;15.60;99.90;;;;;;5071363;28;20225;-57
2022/05/02 06:01:48;;;;;;;8.63;7.53;;;15.80;99.90;;;;;;5071171;28;20204;-57
2022/05/02 06:04:16;;;;;;;8.93;8.00;;;16.00;99.90;;;;;;5071840;28;20209;-57
2022/05/02 06:06:45;;;;;;;8.13;7.33;;;16.30;99.90;;;;;;5071385;28;20334;-57
2022/05/02 06:09:15;;;;;;;9.17;7.77;;;16.40;99.90;;;;;;5071231;28;20657;-58
2022/05/02 06:11:41;;;;;;;8.60;7.80;;;17.10;99.90;;;;;;5071558;28;20254;-58
2022/05/02 06:14:10;;;;;;;8.07;6.85;;;18.40;99.90;;;;;;5072380;28;20638;-58
2022/05/02 06:19:38;;;;;;;9.30;7.45;;;21.60;99.90;;;;;;5008986;28;20238;-58
2022/05/02 06:22:07;;;;;;;8.02;6.25;;;23.40;99.90;;;;;;5056705;28;20212;-59
2022/05/02 06:24:35;;;;;;;7.85;6.68;;;24.50;97.20;;;;;;5070977;28;20287;-58
2022/05/02 06:27:03;;;;;;;7.03;6.43;;;25.40;95.70;;;;;;5071148;28;20255;-59
2022/05/02 06:29:30;;;;;;;7.30;6.45;;;26.40;93.30;;;;;;5073108;28;20221;-59
2022/05/02 06:31:59;;;;;;;7.45;6.40;;;27.20;90.20;;;;;;5074742;28;20773;-59
2022/05/02 06:34:28;;;;;;;7.40;6.65;;;27.70;87.60;;;;;;5075083;28;20212;-59
2022/05/02 06:37:14;;;;;;;8.38;7.57;;;28.30;84.40;;;;;;5074105;28;20236;-59
2022/05/02 06:39:52;;;;;;;8.27;6.55;;;29.20;81.10;;;;;;5074824;28;20229;-58
2022/05/02 06:42:25;;;;;;;8.13;7.28;;;29.70;73.80;;;;;;5074756;28;20228;-59
2022/05/02 06:45:15;;;;;;;12.20;7.45;;;30.20;70.50;;;;;;5074615;28;20208;-58
2022/05/02 06:48:03;;;;;;;8.55;7.55;;;30.80;67.50;;;;;;5074748;28;20205;-60
2022/05/02 06:50:33;;;;;;;8.25;7.38;;;31.20;66.20;;;;;;5075276;28;20655;-59
2022/05/02 06:53:11;;;;;;;8.73;7.10;;;31.50;64.40;;;;;;5074646;28;20212;-59
2022/05/02 06:55:45;;;;;;;8.13;7.32;;;32.00;63.00;;;;;;5075004;28;20279;-59
2022/05/02 06:58:25;;;;;;;8.18;7.38;;;32.40;60.20;;;;;;5074633;28;20229;-59
2022/05/02 07:01:02;;;;;;;8.15;7.32;;;31.70;59.10;;;;;;5074348;28;20205;-59
2022/05/02 07:04:02;;;;;;;9.18;6.88;;;31.10;61.50;;;;;;5074608;28;20209;-59
2022/05/02 07:06:43;;;;;;;7.95;6.80;;;31.50;61.50;;;;;;5074527;28;20334;-59
2022/05/02 07:09:17;;;;;;;7.63;6.82;;;32.40;59.50;;;;;;5074715;28;20221;-59
2022/05/02 07:11:53;;;;;;;8.50;7.03;;;33.30;57.30;;;;;;5074309;28;20238;-59
2022/05/02 07:14:27;;;;;;;9.60;7.40;;;33.60;55.50;;;;;;5074558;28;20204;-59
2022/05/02 07:16:57;;;;;;;8.20;6.90;;;33.30;55.00;;;;;;5073899;28;20661;-59
2022/05/02 07:19:34;;;;;;;8.32;7.50;;;33.10;55.40;;;;;;5074198;28;20237;-58
2022/05/02 07:22:03;;;;;;;7.93;7.13;;;32.20;56.30;;;;;;5074120;28;20227;-58
2022/05/02 07:24:52;;;;;;;8.43;7.45;;;31.00;58.40;;;;;;5074070;28;20208;-58
2022/05/02 07:27:32;;;;;;;8.52;6.93;;;29.50;60.70;;;;;;5074150;28;20213;-58
2022/05/02 07:29:59;;;;;;;9.15;7.10;;;29.10;62.30;;;;;;5074281;28;20217;-59
2022/05/02 07:32:28;;;;;;;8.55;7.03;;;30.30;60.60;;;;;;5073917;28;20236;-59
2022/05/02 07:34:56;;;;;;;7.70;6.80;;;31.70;57.70;;;;;;5073518;28;20209;-59
2022/05/02 07:37:23;;;;;;;7.90;7.10;;;32.80;56.30;;;;;;5073911;28;20220;-59
2022/05/02 07:39:52;;;;;;;9.07;7.45;;;33.60;54.30;;;;;;5073672;28;20233;-59
2022/05/02 07:42:19;;;;;;;8.77;7.88;;;34.00;54.40;;;;;;5073021;28;20673;-60
2022/05/02 07:44:48;;;;;;;8.18;7.38;;;33.60;53.30;;;;;;5073567;28;20656;-58
2022/05/02 07:47:16;;;;;;;7.15;6.55;;;32.60;55.00;;;;;;5073472;28;20733;-59
2022/05/02 07:49:48;;;;;;;8.88;7.30;;;32.80;55.10;;;;;;5073401;28;20313;-59
2022/05/02 07:52:18;;;;;;;7.90;7.10;;;32.80;53.90;;;;;;5073659;28;20526;-58
2022/05/02 07:54:47;;;;;;;8.43;7.63;;;31.50;56.10;;;;;;5073367;28;20800;-58
2022/05/02 07:57:18;;;;;;;7.85;7.15;;;30.50;57.60;;;;;;5073258;28;20268;-58
2022/05/02 07:59:47;;;;;;;11.68;7.25;;;29.80;59.50;;;;;;5096945;22;20314;-55
2022/05/02 08:02:16;;;;;;;7.90;7.20;;;30.60;58.80;;;;;;5072435;28;20582;-56
2022/05/02 08:04:44;;;;;;;8.88;7.53;;;32.10;56.10;;;;;;5072869;28;20208;-55
2022/05/02 08:07:14;;;;;;;8.20;7.28;;;33.10;55.40;;;;;;5072718;28;20205;-55
2022/05/02 08:10:14;;;;;;;8.25;7.45;;;34.10;53.10;;;;;;5072840;28;20225;-55
2022/05/02 08:12:52;;;;;;;8.48;7.25;;;33.80;53.30;;;;;;5072876;28;20303;-55
2022/05/02 08:15:25;;;;;;;10.18;9.13;;;33.40;54.40;;;;;;5072814;28;20258;-56
2022/05/02 08:18:05;;;;;;;8.60;7.70;;;32.90;53.80;;;;;;5073319;28;20262;-54
2022/05/02 08:20:39;;;;;;;9.15;8.05;;;31.40;56.10;;;;;;5072749;28;20607;-56
2022/05/02 08:29:23;;;;;;;9.07;8.27;;;31.50;56.10;;;;;;5054785;28;20228;-55
2022/05/02 08:31:58;;;;;;;9.43;8.32;;;30.90;56.50;;;;;;5072686;28;20234;-55
2022/05/02 08:34:32;;;;;;;10.63;9.45;;;30.00;57.00;;;;;;5072539;28;20266;-55
2022/05/02 08:37:11;;;;;;;8.50;7.65;;;28.10;59.80;;;;;;5072277;28;20201;-55
2022/05/02 08:39:52;;;;;;;9.93;8.93;;;25.80;64.80;;;;;;5072380;28;20220;-56
2022/05/02 08:42:50;;;;;;;11.35;9.05;;;24.50;66.00;;;;;;5072325;28;20213;-54
2022/05/02 08:45:46;;;;;;;11.13;9.88;;;23.40;69.60;;;;;;5068651;28;20212;-56
2022/05/02 08:49:32;;;;;;;9.27;8.38;;;21.60;75.50;;;;;;5072067;28;20209;-55
2022/05/02 08:52:07;;;;;;;10.20;9.18;;;21.20;76.40;;;;;;5071803;28;20718;-56
2022/05/02 08:55:10;;;;;;;9.85;8.18;;;21.30;78.00;;;;;;5071831;28;20208;-56
2022/05/02 08:58:11;;;;;;;9.82;8.68;;;20.90;80.00;;;;;;4997392;28;20203;-55
2022/05/02 09:00:55;;;;;;;9.75;8.77;;;21.00;79.10;;;;;;5071839;28;20254;-54
2022/05/02 09:03:57;;;;;;;10.00;8.98;;;20.50;80.60;;;;;;5072149;28;20204;-55
2022/05/02 09:06:49;;;;;;;11.15;8.32;;;20.70;81.20;;;;;;5071992;28;20261;-55
2022/05/02 09:09:40;;;;;;;10.73;9.63;;;21.00;80.00;;;;;;5072057;28;20229;-57
2022/05/02 09:12:45;;;;;;;10.68;9.60;;;21.40;79.90;;;;;;5072108;28;20201;-56
2022/05/02 09:15:17;;;;;;;11.45;9.10;;;21.70;80.30;;;;;;5071828;28;20212;-56
2022/05/02 09:18:20;;;;;;;11.35;9.35;;;21.90;80.70;;;;;;5072137;28;20650;-56
2022/05/02 09:20:59;;;;;;;10.48;9.48;;;21.80;79.00;;;;;;5071699;28;20231;-56
2022/05/02 09:23:53;;;;;;;10.52;9.52;;;21.30;80.60;;;;;;5071699;28;20672;-55
2022/05/02 09:26:50;;;;;;;10.25;9.07;;;20.80;82.20;;;;;;5071920;28;20238;-55
2022/05/02 09:29:50;;;;;;;10.20;9.20;;;20.90;83.70;;;;;;5071848;28;20246;-54
2022/05/02 09:32:25;;;;;;;10.07;8.98;;;21.00;82.70;;;;;;5065037;28;20209;-55
2022/05/02 09:34:56;;;;;;;10.10;9.02;;;21.20;81.30;;;;;;5071884;28;20215;-54
2022/05/02 09:37:36;;;;;;;13.18;8.88;;;21.20;80.90;;;;;;5071372;28;20557;-55
2022/05/02 09:40:09;;;;;;;9.57;8.60;;;21.20;80.80;;;;;;5071461;28;20239;-55
2022/05/02 09:42:51;;;;;;;9.50;8.60;;;20.80;82.50;;;;;;5071522;28;20205;-56
2022/05/02 09:52:09;;;;;;;8.45;7.45;;;21.90;80.00;;;;;;5071653;28;20196;-57
2022/05/02 09:58:00;;;;;;;8.50;7.28;;;22.40;77.50;;;;;;5071578;28;20208;-55
2022/05/02 10:03:36;;;;;;;7.93;7.13;;;22.60;77.40;;;;;;5071441;28;20203;-55
2022/05/02 10:06:05;;;;;;;9.07;8.23;;;23.10;76.90;;;;;;5075233;28;20626;-55
2022/05/02 10:08:49;;;;;;;8.60;7.50;;;23.50;76.20;;;;;;5075395;28;20221;-54
2022/05/02 10:11:34;;;;;;;8.30;7.55;;;23.60;74.50;;;;;;5075244;28;20205;-55
2022/05/02 10:14:26;;;;;;;6.93;6.32;;;23.60;74.30;;;;;;5075170;28;20262;-54
2022/05/02 10:16:58;;;;;;;7.22;6.53;;;23.50;73.40;;;;;;5074505;28;20668;-55
2022/05/02 10:19:36;;;;;;;6.88;6.22;;;23.40;73.60;;;;;;5074633;28;20240;-55
2022/05/02 10:22:23;;;;;;;6.70;6.03;;;23.30;74.30;;;;;;5074695;28;20208;-54
2022/05/02 10:25:02;;;;;;;7.53;6.20;;;23.60;74.00;;;;;;5074742;28;20228;-54
2022/05/02 10:27:45;;;;;;;6.32;5.72;;;23.40;74.10;;;;;;5074476;28;20279;-55
2022/05/02 10:30:13;;;;;;;6.93;5.82;;;23.00;74.40;;;;;;5074131;28;20229;-54
2022/05/02 10:32:46;;;;;;;6.25;5.65;;;22.90;74.40;;;;;;5074747;28;20208;-55
2022/05/02 10:35:15;;;;;;;6.47;5.88;;;23.00;74.60;;;;;;5074318;28;20207;-55
2022/05/02 10:37:43;;;;;;;7.10;6.13;;;23.20;74.60;;;;;;5074482;28;20205;-55
2022/05/02 10:40:13;;;;;;;6.60;5.93;;;23.50;73.70;;;;;;5074265;28;20232;-55
2022/05/02 10:42:51;;;;;;;6.55;5.88;;;23.80;72.40;;;;;;5074231;28;20229;-54
2022/05/02 10:45:19;;;;;;;6.25;5.55;;;23.90;71.50;;;;;;5071406;28;20258;-65
2022/05/02 10:47:50;;;;;;;8.20;5.18;;;23.80;71.30;;;;;;5073670;28;20209;-60
2022/05/02 10:50:19;;;;;;;7.35;5.75;;;23.60;71.30;;;;;;5073851;28;20225;-60
2022/05/02 10:53:15;;;;;;;6.15;5.55;;;23.50;71.60;;;;;;5074096;28;20212;-61
2022/05/02 10:55:57;;;;;;;6.03;5.25;;;23.60;71.40;;;;;;5073114;28;20259;-60
2022/05/02 10:58:25;;;;;;;5.80;5.30;;;23.70;70.90;;;;;;5074093;28;20200;-61
2022/05/02 11:01:10;;;;;;;5.65;5.03;;;23.80;70.70;;;;;;5074016;28;20346;-58
2022/05/02 11:03:46;;;;;;;6.35;4.93;;;23.90;70.60;;;;;;5073807;28;20209;-62
2022/05/02 11:06:27;;;;;;;5.43;4.60;;;24.00;70.60;;;;;;5073740;28;20244;-63
2022/05/02 11:08:59;;;;;;;4.72;4.32;;;24.00;71.60;;;;;;5073766;28;20224;-61
2022/05/02 11:11:31;;;;;;;6.32;4.88;;;24.00;71.10;;;;;;5073963;28;20205;-61
2022/05/02 11:14:07;;;;;;;6.13;4.78;;;24.00;70.60;;;;;;5073668;28;20274;-61
2022/05/02 11:16:40;;;;;;;11.80;5.13;;;24.00;71.20;;;;;;5072532;28;20201;-62
2022/05/02 11:22:19;;;;;;;5.15;4.65;;;24.00;69.90;;;;;;5073578;28;20258;-62
2022/05/02 11:24:51;;;;;;;6.03;4.68;;;24.00;68.80;;;;;;5073713;28;20209;-61
2022/05/02 11:27:43;;;;;;;5.00;4.55;;;24.00;68.90;;;;;;5073516;28;20209;-61
2022/05/02 11:30:14;;;;;;;4.90;4.40;;;24.10;69.50;;;;;;5073843;28;20224;-62
2022/05/02 11:32:49;;;;;;;5.30;4.30;;;24.10;69.60;;;;;;5074056;28;20220;-59
2022/05/02 11:35:24;;;;;;;4.60;4.20;;;24.10;68.50;;;;;;5074431;28;20286;-61
2022/05/02 11:37:55;;;;;;;5.00;4.32;;;24.20;68.70;;;;;;5074452;28;20200;-58
2022/05/02 11:40:28;;;;;;;5.05;4.50;;;24.30;67.90;;;;;;5074134;28;20278;-57
2022/05/02 11:42:56;;;;;;;4.93;4.43;;;24.60;68.20;;;;;;5074391;28;20205;-56
2022/05/02 11:45:33;;;;;;;4.78;4.28;;;24.90;67.50;;;;;;5073979;28;20286;-56
2022/05/02 11:48:18;;;;;;;4.47;4.07;;;25.20;66.70;;;;;;5074244;28;20204;-56
2022/05/02 11:50:47;;;;;;;5.45;4.03;;;25.40;65.90;;;;;;5074128;28;20212;-58
2022/05/02 11:53:15;;;;;;;5.65;3.63;;;25.60;65.20;;;;;;5074073;28;20276;-56
2022/05/02 11:55:43;;;;;;;4.75;4.18;;;25.70;65.60;;;;;;5073764;28;20300;-57
2022/05/02 11:58:15;;;;;;;4.20;3.83;;;25.40;66.50;;;;;;5074058;28;20677;-55
2022/05/02 12:00:45;;;;;;;6.85;4.53;;;25.10;67.90;;;;;;5073743;28;20224;-56
2022/05/02 12:03:16;;;;;;;6.82;3.95;;;24.80;67.30;;;;;;5074065;28;20208;-56
2022/05/02 12:05:48;;;;;;;5.88;4.20;;;24.60;68.20;;;;;;5073605;28;20212;-57
2022/05/02 12:08:25;;;;;;;6.55;3.90;;;24.40;68.40;;;;;;5073783;28;20574;-56
2022/05/02 12:11:05;;;;;;;4.35;3.95;;;24.10;69.50;;;;;;5073954;28;20200;-56
2022/05/02 12:13:35;;;;;;;4.45;4.03;;;24.00;69.30;;;;;;5073564;28;20262;-56
2022/05/02 12:16:04;;;;;;;5.68;4.00;;;24.00;69.20;;;;;;5073358;28;20232;-57
2022/05/02 12:18:42;;;;;;;5.55;4.10;;;24.00;68.80;;;;;;5073331;28;20699;-56
2022/05/02 12:21:15;;;;;;;5.55;4.50;;;23.90;68.80;;;;;;5073433;28;20270;-56
2022/05/02 12:23:43;;;;;;;4.30;3.63;;;23.80;69.20;;;;;;5073899;28;20212;-55
2022/05/02 12:26:18;;;;;;;4.50;4.10;;;23.80;69.50;;;;;;5073472;28;20296;-56
2022/05/02 12:28:48;;;;;;;4.07;3.58;;;23.70;69.10;;;;;;5073087;28;20256;-59
2022/05/02 12:31:17;;;;;;;4.88;4.28;;;23.60;69.90;;;;;;5073469;28;20296;-59
2022/05/02 12:33:56;;;;;;;4.50;4.07;;;23.60;70.30;;;;;;5073426;28;20201;-59
2022/05/02 12:36:27;;;;;;;4.53;4.13;;;23.50;70.90;;;;;;5072754;28;20205;-60
2022/05/02 12:38:56;;;;;;;4.22;3.78;;;23.50;70.70;;;;;;5073249;28;20278;-59
2022/05/02 12:41:26;;;;;;;5.50;3.92;;;23.30;71.00;;;;;;5072197;28;20266;-58
2022/05/02 12:43:54;;;;;;;3.80;3.50;;;23.30;70.40;;;;;;5072590;28;20226;-59
2022/05/02 12:46:32;;;;;;;4.07;3.40;;;23.20;70.50;;;;;;5072020;28;20201;-58
2022/05/02 12:49:04;;;;;;;4.25;3.38;;;23.40;70.00;;;;;;5072458;28;20243;-57
2022/05/02 12:51:32;;;;;;;3.55;3.25;;;23.50;69.00;;;;;;5072269;28;20291;-58
2022/05/02 12:54:14;;;;;;;5.63;3.40;;;23.50;69.10;;;;;;5071943;28;20209;-58
2022/05/02 13:00:30;;;;;;;4.38;3.33;;;23.50;69.80;;;;;;5071928;28;20741;-58
2022/05/02 13:02:33;;;;;;;5.50;3.25;;;23.40;69.40;;;;;;5071880;28;20549;-57
2022/05/02 13:05:02;;;;;;;4.15;3.85;;;23.10;69.20;;;;;;5071887;28;20714;-58
2022/05/02 13:07:37;;;;;;;3.88;3.47;;;22.80;69.80;;;;;;5071671;28;20236;-56
2022/05/02 13:10:07;;;;;;;3.45;3.15;;;22.60;69.90;;;;;;5071911;28;20224;-58
2022/05/02 13:12:34;;;;;;;3.90;3.50;;;22.60;70.30;;;;;;5071587;28;20232;-58
2022/05/02 13:15:04;;;;;;;3.58;3.28;;;22.80;69.60;;;;;;5071663;28;20602;-58
2022/05/02 13:17:34;;;;;;;4.90;3.42;;;23.00;69.80;;;;;;5071810;28;20212;-59
2022/05/02 13:20:03;;;;;;;3.70;3.40;;;23.00;69.00;;;;;;5071563;28;20297;-58
2022/05/02 13:23:00;;;;;;;4.10;3.47;;;22.90;69.40;;;;;;5071796;28;20588;-58
2022/05/02 13:25:59;;;;;;;3.72;3.40;;;22.90;69.70;;;;;;5071255;28;20581;-58
2022/05/02 13:28:33;;;;;;;4.53;3.97;;;22.80;70.60;;;;;;5071321;28;20535;-58
2022/05/02 13:31:08;;;;;;;3.70;3.40;;;22.90;70.70;;;;;;5071221;28;20269;-58
2022/05/02 13:33:39;;;;;;;3.80;3.42;;;23.20;70.70;;;;;;5071377;28;20336;-58
2022/05/02 13:36:08;;;;;;;4.55;3.10;;;23.70;69.70;;;;;;5071480;28;20212;-57
2022/05/02 13:38:44;;;;;;;3.10;2.80;;;24.10;67.70;;;;;;5071136;28;20229;-59
2022/05/02 13:41:21;;;;;;;4.38;3.10;;;24.60;67.40;;;;;;5071605;28;20224;-58
2022/05/02 13:44:03;;;;;;;4.53;3.15;;;25.10;66.50;;;;;;5071496;28;20224;-57
2022/05/02 13:46:41;;;;;;;4.43;3.22;;;25.40;65.00;;;;;;5071373;28;20204;-58
2022/05/02 13:49:19;;;;;;;3.30;3.00;;;25.40;65.20;;;;;;5071555;28;20224;-58